createdAt,value
2022-10-30T00:00:54.643Z,101436.31
2022-10-30T00:03:24.267Z,101448.41
2022-10-30T00:05:53.058Z,101446.88
2022-10-30T00:08:22.927Z,101443.47
2022-10-30T00:10:51.379Z,101427.34
2022-10-30T00:13:20.477Z,101430.03
2022-10-30T00:15:49.787Z,101433.31
2022-10-30T00:18:17.889Z,101439.38
2022-10-30T00:20:47.802Z,101440.25
2022-10-30T00:23:15.716Z,101454.91
2022-10-30T00:25:43.639Z,101452.25
2022-10-30T00:28:11.545Z,101443.69
2022-10-30T00:30:39.723Z,101450.69
2022-10-30T00:33:07.615Z,101445.31
2022-10-30T00:35:38.677Z,101446.81
2022-10-30T00:38:10.741Z,101452.88
2022-10-30T00:40:38.636Z,101454.66
2022-10-30T00:43:08.568Z,101461.75
2022-10-30T00:45:36.613Z,101463.19
2022-10-30T00:48:05.733Z,101465.34
2022-10-30T00:50:37.363Z,101457.00
2022-10-30T00:53:08.490Z,101455.31
2022-10-30T00:55:41.337Z,101445.97
2022-10-30T00:58:15.050Z,101446.84
2022-10-30T01:00:50.342Z,101448.56
2022-10-30T01:03:19.213Z,101444.38
2022-10-30T01:05:53.578Z,101452.50
2022-10-30T01:08:21.804Z,101461.22
2022-10-30T01:10:52.051Z,101457.16
2022-10-30T01:13:23.740Z,101454.97
2022-10-30T01:16:07.541Z,101465.31
2022-10-30T01:18:43.705Z,101465.31
2022-10-30T01:21:20.630Z,101466.38
2022-10-30T01:24:03.492Z,101475.25
2022-10-30T01:26:42.941Z,101478.75
2022-10-30T01:29:26.684Z,101491.59
2022-10-30T01:32:08.941Z,101500.34
2022-10-30T01:34:44.393Z,101501.09
2022-10-30T01:37:19.866Z,101493.22
2022-10-30T01:39:47.878Z,101490.44
2022-10-30T01:42:48.562Z,101500.91
2022-10-30T01:45:21.513Z,101492.34
2022-10-30T01:48:11.125Z,101495.72
2022-10-30T01:50:48.983Z,101497.44
2022-10-30T01:53:26.162Z,101495.06
2022-10-30T01:56:01.539Z,101495.25
2022-10-30T01:58:38.110Z,101492.94
2022-10-30T02:01:06.406Z,101480.19
2022-10-30T02:03:34.310Z,101486.34
2022-10-30T02:06:02.932Z,101479.53
2022-10-30T02:08:30.991Z,101494.25
2022-10-30T02:11:00.145Z,101495.16
2022-10-30T02:13:28.325Z,101499.38
2022-10-30T02:15:59.923Z,101496.06
2022-10-30T02:18:27.828Z,101497.84
2022-10-30T02:20:57.174Z,101501.56
2022-10-30T02:23:25.311Z,101502.47
2022-10-30T02:25:53.173Z,101506.69
2022-10-30T02:28:21.440Z,101500.69
2022-10-30T02:30:49.442Z,101500.66
2022-10-30T02:35:46.118Z,101523.94
2022-10-30T02:38:15.374Z,101524.66
2022-10-30T02:40:43.280Z,101522.16
2022-10-30T02:43:11.129Z,101531.66
2022-10-30T02:45:39.013Z,101538.53
2022-10-30T02:48:07.338Z,101537.56
2022-10-30T02:50:35.317Z,101547.72
2022-10-30T02:53:03.202Z,101545.84
2022-10-30T02:55:32.457Z,101534.00
2022-10-30T02:58:00.441Z,101532.47
2022-10-30T03:00:28.416Z,101519.63
2022-10-30T03:02:56.916Z,101519.63
2022-10-30T03:05:25.527Z,101512.88
2022-10-30T03:07:55.434Z,101519.06
2022-10-30T03:10:23.510Z,101516.63
2022-10-30T03:12:52.903Z,101514.88
2022-10-30T03:15:21.403Z,101510.66
2022-10-30T03:17:52.594Z,101503.81
2022-10-30T03:20:20.839Z,101504.88
2022-10-30T03:22:48.712Z,101513.44
2022-10-30T03:25:17.664Z,101514.19
2022-10-30T03:27:45.739Z,101513.59
2022-10-30T03:30:15.069Z,101518.81
2022-10-30T03:32:43.102Z,101523.09
2022-10-30T03:35:11.005Z,101516.19
2022-10-30T03:37:39.039Z,101521.41
2022-10-30T03:40:08.172Z,101514.50
2022-10-30T03:42:36.056Z,101511.78
2022-10-30T03:45:03.963Z,101514.31
2022-10-30T03:47:33.241Z,101506.69
2022-10-30T03:50:01.083Z,101521.53
2022-10-30T03:52:28.924Z,101521.63
2022-10-30T03:54:56.799Z,101511.25
2022-10-30T03:57:24.852Z,101506.16
2022-10-30T03:59:52.877Z,101506.31
2022-10-30T04:02:20.924Z,101518.44
2022-10-30T04:04:50.330Z,101524.56
2022-10-30T04:07:18.170Z,101510.00
2022-10-30T04:09:46.365Z,101513.53
2022-10-30T04:12:14.240Z,101514.53
2022-10-30T04:14:42.100Z,101505.13
2022-10-30T04:19:45.479Z,101517.38
2022-10-30T04:22:17.813Z,101524.31
2022-10-30T04:24:46.079Z,101517.56
2022-10-30T04:27:14.270Z,101519.47
2022-10-30T04:29:43.172Z,101529.91
2022-10-30T04:32:11.799Z,101531.03
2022-10-30T04:34:42.062Z,101534.56
2022-10-30T04:37:09.757Z,101535.84
2022-10-30T04:39:42.352Z,101553.03
2022-10-30T04:42:13.483Z,101552.13
2022-10-30T04:44:41.370Z,101544.38
2022-10-30T04:47:09.224Z,101554.72
2022-10-30T04:49:37.418Z,101550.56
2022-10-30T04:52:05.338Z,101560.88
2022-10-30T04:54:33.231Z,101566.94
2022-10-30T04:57:02.457Z,101556.56
2022-10-30T04:59:31.489Z,101553.81
2022-10-30T05:01:59.467Z,101552.94
2022-10-30T05:04:27.399Z,101559.00
2022-10-30T05:06:55.287Z,101566.84
2022-10-30T05:09:23.161Z,101565.00
2022-10-30T05:11:52.983Z,101580.47
2022-10-30T05:14:30.271Z,101577.94
2022-10-30T05:16:58.547Z,101582.31
2022-10-30T05:19:26.809Z,101580.53
2022-10-30T05:21:54.698Z,101588.44
2022-10-30T05:24:25.356Z,101579.81
2022-10-30T05:26:53.233Z,101584.00
2022-10-30T05:29:21.057Z,101590.00
2022-10-30T05:31:52.484Z,101594.22
2022-10-30T05:34:20.378Z,101594.88
2022-10-30T05:36:48.284Z,101590.44
2022-10-30T05:39:16.180Z,101589.59
2022-10-30T05:41:44.038Z,101602.59
2022-10-30T05:44:11.897Z,101595.63
2022-10-30T05:46:39.761Z,101598.91
2022-10-30T05:49:09.247Z,101613.56
2022-10-30T05:51:39.732Z,101605.75
2022-10-30T05:54:09.712Z,101608.22
2022-10-30T05:56:37.586Z,101608.84
2022-10-30T05:59:05.477Z,101612.28
2022-10-30T06:01:33.431Z,101610.53
2022-10-30T06:04:01.484Z,101622.63
2022-10-30T06:06:30.687Z,101625.28
2022-10-30T06:08:58.729Z,101620.13
2022-10-30T06:11:26.597Z,101627.88
2022-10-30T06:13:54.481Z,101626.22
2022-10-30T06:16:22.492Z,101635.63
2022-10-30T06:18:50.495Z,101636.53
2022-10-30T06:21:18.341Z,101628.78
2022-10-30T06:23:49.675Z,101633.22
2022-10-30T06:26:17.550Z,101641.09
2022-10-30T06:28:45.461Z,101642.94
2022-10-30T06:31:13.465Z,101642.03
2022-10-30T06:33:41.703Z,101640.28
2022-10-30T06:36:10.181Z,101650.66
2022-10-30T06:38:38.027Z,101646.25
2022-10-30T06:41:07.427Z,101654.06
2022-10-30T06:43:35.900Z,101658.41
2022-10-30T06:46:03.989Z,101673.94
2022-10-30T06:48:32.459Z,101678.16
2022-10-30T06:51:03.207Z,101676.41
2022-10-30T06:53:31.160Z,101680.59
2022-10-30T06:56:00.265Z,101677.84
2022-10-30T06:58:30.306Z,101682.88
2022-10-30T07:01:01.030Z,101693.09
2022-10-30T07:03:28.901Z,101687.91
2022-10-30T07:05:56.769Z,101691.38
2022-10-30T07:08:24.699Z,101694.66
2022-10-30T07:10:52.648Z,101698.84
2022-10-30T07:13:20.702Z,101696.22
2022-10-30T07:15:49.954Z,101706.41
2022-10-30T07:18:18.205Z,101704.59
2022-10-30T07:20:46.094Z,101712.19
2022-10-30T07:23:14.030Z,101710.47
2022-10-30T07:25:41.925Z,101711.28
2022-10-30T07:28:09.806Z,101712.88
2022-10-30T07:30:40.177Z,101718.84
2022-10-30T07:33:11.618Z,101709.22
2022-10-30T07:35:39.526Z,101721.19
2022-10-30T07:38:09.166Z,101726.28
2022-10-30T07:40:37.261Z,101728.88
2022-10-30T07:43:05.871Z,101725.28
2022-10-30T07:45:34.863Z,101719.06
2022-10-30T07:48:03.263Z,101727.56
2022-10-30T07:50:32.973Z,101729.34
2022-10-30T07:53:00.829Z,101737.84
2022-10-30T07:55:28.716Z,101733.44
2022-10-30T07:57:56.951Z,101729.88
2022-10-30T08:00:25.140Z,101732.44
2022-10-30T08:02:57.423Z,101731.53
2022-10-30T08:05:29.065Z,101738.25
2022-10-30T08:08:00.206Z,101729.44
2022-10-30T08:10:28.573Z,101731.91
2022-10-30T08:12:56.541Z,101732.63
2022-10-30T08:15:25.073Z,101735.03
2022-10-30T08:17:53.564Z,101755.56
2022-10-30T08:20:24.174Z,101748.47
2022-10-30T08:22:53.358Z,101746.59
2022-10-30T08:25:24.357Z,101740.38
2022-10-30T08:27:55.058Z,101742.88
2022-10-30T08:30:23.686Z,101747.72
2022-10-30T08:32:58.432Z,101739.69
2022-10-30T08:35:26.600Z,101737.81
2022-10-30T08:37:56.718Z,101735.84
2022-10-30T08:40:27.224Z,101729.59
2022-10-30T08:42:56.672Z,101745.88
2022-10-30T08:45:29.876Z,101755.19
2022-10-30T08:48:00.810Z,101767.16
2022-10-30T08:50:29.204Z,101765.22
2022-10-30T08:52:57.393Z,101763.19
2022-10-30T08:55:27.000Z,101766.38
2022-10-30T08:57:54.847Z,101774.88
2022-10-30T09:00:24.871Z,101776.56
2022-10-30T09:02:52.851Z,101768.50
2022-10-30T09:05:22.220Z,101774.09
2022-10-30T09:07:50.237Z,101779.19
2022-10-30T09:10:18.221Z,101775.63
2022-10-30T09:12:47.558Z,101777.13
2022-10-30T09:15:15.470Z,101777.69
2022-10-30T09:17:43.524Z,101790.50
2022-10-30T09:20:12.237Z,101786.06
2022-10-30T09:22:41.845Z,101780.53
2022-10-30T09:25:10.656Z,101783.00
2022-10-30T09:27:39.219Z,101790.63
2022-10-30T09:30:09.955Z,101791.09
2022-10-30T09:32:37.806Z,101803.13
2022-10-30T09:35:06.460Z,101796.09
2022-10-30T09:37:36.075Z,101783.78
2022-10-30T09:40:04.763Z,101792.34
2022-10-30T09:42:51.779Z,101789.22
2022-10-30T09:45:57.335Z,101779.47
2022-10-30T09:48:57.210Z,101786.81
2022-10-30T09:51:47.018Z,101797.88
2022-10-30T09:54:22.697Z,101793.34
2022-10-30T09:56:59.518Z,101786.16
2022-10-30T09:59:44.922Z,101784.69
2022-10-30T10:02:27.472Z,101785.22
2022-10-30T10:04:59.486Z,101798.00
2022-10-30T10:07:31.342Z,101794.91
2022-10-30T10:10:04.786Z,101799.13
2022-10-30T10:12:39.198Z,101789.25
2022-10-30T10:15:15.723Z,101787.28
2022-10-30T10:17:46.815Z,101787.94
2022-10-30T10:20:19.170Z,101794.09
2022-10-30T10:22:49.780Z,101808.66
2022-10-30T10:25:20.543Z,101815.50
2022-10-30T10:28:12.638Z,101815.38
2022-10-30T10:30:49.051Z,101815.38
2022-10-30T10:33:31.539Z,101812.56
2022-10-30T10:36:23.334Z,101814.91
2022-10-30T10:39:02.534Z,101821.50
2022-10-30T10:41:53.441Z,101816.94
2022-10-30T10:44:33.942Z,101827.44
2022-10-30T10:47:17.496Z,101830.03
2022-10-30T10:49:59.393Z,101819.28
2022-10-30T10:52:37.649Z,101823.06
2022-10-30T10:55:08.428Z,101821.16
2022-10-30T10:57:39.455Z,101822.69
2022-10-30T11:00:09.582Z,101824.56
2022-10-30T11:02:43.206Z,101825.34
2022-10-30T11:05:24.085Z,101829.72
2022-10-30T11:07:52.873Z,101830.38
2022-10-30T11:10:23.867Z,101831.97
2022-10-30T11:12:53.248Z,101827.81
2022-10-30T11:15:36.469Z,101814.06
2022-10-30T11:20:42.250Z,101812.19
2022-10-30T11:23:32.747Z,101817.00
2022-10-30T11:26:00.550Z,101816.28
2022-10-30T11:28:42.711Z,101806.50
2022-10-30T11:31:27.621Z,101812.69
2022-10-30T11:33:55.697Z,101816.16
2022-10-30T11:36:27.971Z,101814.41
2022-10-30T11:39:10.142Z,101812.53
2022-10-30T11:41:38.269Z,101814.13
2022-10-30T11:44:07.662Z,101806.25
2022-10-30T11:46:37.859Z,101806.25
2022-10-30T11:49:05.730Z,101803.56
2022-10-30T11:51:38.704Z,101807.19
2022-10-30T11:54:08.803Z,101808.97
2022-10-30T11:56:36.798Z,101810.47
2022-10-30T11:59:06.603Z,101812.75
2022-10-30T12:01:37.340Z,101807.53
2022-10-30T12:04:17.149Z,101813.72
2022-10-30T12:06:46.751Z,101811.94
2022-10-30T12:09:20.750Z,101805.84
2022-10-30T12:11:49.532Z,101799.69
2022-10-30T12:14:21.149Z,101802.25
2022-10-30T12:16:51.296Z,101803.22
2022-10-30T12:19:22.211Z,101814.56
2022-10-30T12:21:53.551Z,101809.34
2022-10-30T12:24:29.494Z,101811.13
2022-10-30T12:26:58.630Z,101818.63
2022-10-30T12:30:02.751Z,101816.03
2022-10-30T12:32:28.017Z,101807.25
2022-10-30T12:35:02.848Z,101808.94
2022-10-30T12:37:36.126Z,101813.22
2022-10-30T12:40:08.949Z,101810.69
2022-10-30T12:42:41.583Z,101807.31
2022-10-30T12:45:15.990Z,101816.97
2022-10-30T12:47:49.733Z,101815.28
2022-10-30T12:50:24.170Z,101814.16
2022-10-30T12:53:00.891Z,101809.00
2022-10-30T12:55:35.800Z,101807.19
2022-10-30T12:58:11.913Z,101812.47
2022-10-30T13:00:45.080Z,101809.78
2022-10-30T13:03:25.611Z,101802.09
2022-10-30T13:05:57.009Z,101802.16
2022-10-30T13:08:34.288Z,101804.84
2022-10-30T13:11:08.797Z,101810.06
2022-10-30T13:13:40.788Z,101797.94
2022-10-30T13:16:15.273Z,101799.56
2022-10-30T13:18:43.198Z,101808.28
2022-10-30T13:21:27.342Z,101811.75
2022-10-30T13:24:03.209Z,101823.16
2022-10-30T13:26:39.528Z,101814.56
2022-10-30T13:29:24.538Z,101824.97
2022-10-30T13:32:02.905Z,101822.38
2022-10-30T13:34:41.263Z,101821.56
2022-10-30T13:37:15.730Z,101809.34
2022-10-30T13:39:53.931Z,101801.03
2022-10-30T13:42:36.358Z,101802.06
2022-10-30T13:45:23.245Z,101814.13
2022-10-30T13:48:00.867Z,101807.53
2022-10-30T13:50:55.446Z,101804.94
2022-10-30T13:53:35.222Z,101792.81
2022-10-30T13:56:05.560Z,101799.78
2022-10-30T13:58:38.099Z,101793.22
2022-10-30T14:01:17.350Z,101808.13
2022-10-30T14:03:53.591Z,101806.72
2022-10-30T14:06:33.750Z,101812.13
2022-10-30T14:09:13.727Z,101810.69
2022-10-30T14:11:43.206Z,101809.00
2022-10-30T14:14:30.159Z,101814.53
2022-10-30T14:17:16.102Z,101813.06
2022-10-30T14:20:21.042Z,101810.66
2022-10-30T14:23:15.757Z,101813.34
2022-10-30T14:25:46.340Z,101818.66
2022-10-30T14:28:22.759Z,101814.56
2022-10-30T14:31:03.420Z,101819.03
2022-10-30T14:33:49.050Z,101814.00
2022-10-30T14:36:22.887Z,101820.16
2022-10-30T14:38:57.190Z,101813.38
2022-10-30T14:41:51.822Z,101818.88
2022-10-30T14:44:51.634Z,101817.31
2022-10-30T14:47:48.262Z,101812.31
2022-10-30T14:50:33.706Z,101823.78
2022-10-30T14:53:21.236Z,101818.75
2022-10-30T14:55:56.930Z,101814.59
2022-10-30T14:58:27.248Z,101823.56
2022-10-30T15:01:12.859Z,101823.16
2022-10-30T15:03:54.642Z,101829.97
2022-10-30T15:06:31.608Z,101827.41
2022-10-30T15:09:11.475Z,101828.47
2022-10-30T15:12:02.739Z,101827.72
2022-10-30T15:17:30.043Z,101832.41
2022-10-30T15:20:02.680Z,101831.59
2022-10-30T15:22:31.710Z,101827.38
2022-10-30T15:25:00.006Z,101836.19
2022-10-30T15:27:28.343Z,101828.44
2022-10-30T15:29:58.818Z,101828.50
2022-10-30T15:32:27.149Z,101834.75
2022-10-30T15:34:57.232Z,101830.75
2022-10-30T15:37:26.513Z,101836.28
2022-10-30T15:40:13.741Z,101832.09
2022-10-30T15:42:42.188Z,101841.75
2022-10-30T15:45:17.189Z,101841.81
2022-10-30T15:47:47.791Z,101854.19
2022-10-30T15:50:16.942Z,101854.41
2022-10-30T15:52:47.227Z,101859.03
2022-10-30T15:55:17.210Z,101852.22
2022-10-30T15:58:12.879Z,101844.41
2022-10-30T16:00:39.600Z,101847.81
2022-10-30T16:03:17.144Z,101851.69
2022-10-30T16:05:45.351Z,101848.47
2022-10-30T16:08:17.908Z,101854.53
2022-10-30T16:10:46.710Z,101852.09
2022-10-30T16:13:18.877Z,101845.44
2022-10-30T16:15:48.166Z,101845.50
2022-10-30T16:18:20.327Z,101842.91
2022-10-30T16:20:51.185Z,101843.09
2022-10-30T16:23:21.296Z,101844.97
2022-10-30T16:25:54.298Z,101840.00
2022-10-30T16:28:31.858Z,101841.88
2022-10-30T16:31:02.884Z,101844.59
2022-10-30T16:33:33.252Z,101844.59
2022-10-30T16:36:01.198Z,101839.75
2022-10-30T16:38:36.879Z,101845.66
2022-10-30T16:41:07.100Z,101838.88
2022-10-30T16:43:35.965Z,101844.28
2022-10-30T16:46:39.112Z,101841.13
2022-10-30T16:49:10.330Z,101844.66
2022-10-30T16:51:40.222Z,101848.09
2022-10-30T16:54:22.486Z,101843.16
2022-10-30T16:56:54.062Z,101831.34
2022-10-30T16:59:29.180Z,101831.28
2022-10-30T17:02:00.769Z,101832.19
2022-10-30T17:04:30.357Z,101830.56
2022-10-30T17:07:07.983Z,101843.50
2022-10-30T17:09:39.447Z,101842.78
2022-10-30T17:12:20.953Z,101839.66
2022-10-30T17:14:52.070Z,101833.72
2022-10-30T17:17:32.280Z,101837.94
2022-10-30T17:20:14.749Z,101835.44
2022-10-30T17:22:42.720Z,101845.19
2022-10-30T17:25:32.101Z,101839.31
2022-10-30T17:27:59.996Z,101838.47
2022-10-30T17:30:41.221Z,101843.78
2022-10-30T17:33:36.206Z,101837.94
2022-10-30T17:36:05.334Z,101844.03
2022-10-30T17:38:33.375Z,101839.78
2022-10-30T17:41:03.629Z,101845.00
2022-10-30T17:43:32.393Z,101847.09
2022-10-30T17:46:00.460Z,101848.63
2022-10-30T17:48:30.123Z,101853.13
2022-10-30T17:50:58.047Z,101857.41
2022-10-30T17:53:26.820Z,101865.13
2022-10-30T17:56:00.847Z,101864.22
2022-10-30T17:58:31.013Z,101868.63
2022-10-30T18:00:58.860Z,101869.88
2022-10-30T18:03:26.760Z,101887.03
2022-10-30T18:05:55.326Z,101874.97
2022-10-30T18:08:26.083Z,101884.47
2022-10-30T18:10:54.207Z,101871.56
2022-10-30T18:13:22.085Z,101876.78
2022-10-30T18:15:55.290Z,101870.78
2022-10-30T18:18:23.163Z,101882.00
2022-10-30T18:20:51.150Z,101884.63
2022-10-30T18:23:46.773Z,101880.47
2022-10-30T18:26:14.867Z,101887.44
2022-10-30T18:28:43.060Z,101882.22
2022-10-30T18:31:13.654Z,101879.72
2022-10-30T18:33:42.405Z,101882.22
2022-10-30T18:36:13.257Z,101890.88
2022-10-30T18:38:41.169Z,101872.84
2022-10-30T18:41:14.683Z,101882.28
2022-10-30T18:43:45.701Z,101881.44
2022-10-30T18:46:17.221Z,101882.28
2022-10-30T18:48:45.525Z,101888.31
2022-10-30T18:51:18.108Z,101884.09
2022-10-30T18:53:51.815Z,101892.72
2022-10-30T18:56:20.514Z,101881.75
2022-10-30T18:58:48.583Z,101883.56
2022-10-30T19:01:19.093Z,101885.38
2022-10-30T19:03:48.108Z,101879.50
2022-10-30T19:06:17.741Z,101879.69
2022-10-30T19:08:46.205Z,101875.56
2022-10-30T19:11:18.711Z,101881.56
2022-10-30T19:13:50.093Z,101874.59
2022-10-30T19:16:21.145Z,101873.66
2022-10-30T19:18:49.913Z,101877.97
2022-10-30T19:21:19.098Z,101886.56
2022-10-30T19:23:48.223Z,101886.63
2022-10-30T19:26:17.592Z,101886.66
2022-10-30T19:28:46.493Z,101889.38
2022-10-30T19:31:16.819Z,101876.56
2022-10-30T19:33:47.549Z,101875.69
2022-10-30T19:36:35.673Z,101875.78
2022-10-30T19:39:08.913Z,101880.16
2022-10-30T19:41:37.518Z,101878.47
2022-10-30T19:44:08.461Z,101877.56
2022-10-30T19:46:37.439Z,101880.16
2022-10-30T19:49:16.291Z,101876.78
2022-10-30T19:51:44.313Z,101875.19
2022-10-30T19:54:12.352Z,101865.81
2022-10-30T19:56:42.346Z,101867.44
2022-10-30T19:59:11.274Z,101863.84
2022-10-30T20:01:41.582Z,101868.91
2022-10-30T20:04:11.086Z,101866.41
2022-10-30T20:06:39.103Z,101875.16
2022-10-30T20:09:06.970Z,101876.00
2022-10-30T20:11:34.832Z,101870.91
2022-10-30T20:14:02.765Z,101878.78
2022-10-30T20:16:30.615Z,101881.34
2022-10-30T20:18:58.466Z,101884.94
2022-10-30T20:21:28.776Z,101883.94
2022-10-30T20:23:56.605Z,101880.41
2022-10-30T20:26:27.759Z,101882.19
2022-10-30T20:28:56.069Z,101888.09
2022-10-30T20:31:23.993Z,101888.03
2022-10-30T20:33:51.863Z,101881.97
2022-10-30T20:36:19.772Z,101882.59
2022-10-30T20:38:53.141Z,101880.75
2022-10-30T20:41:23.241Z,101871.97
2022-10-30T20:43:54.264Z,101865.81
2022-10-30T20:46:22.523Z,101872.66
2022-10-30T20:48:50.401Z,101869.09
2022-10-30T20:51:18.284Z,101873.34
2022-10-30T20:53:46.290Z,101868.94
2022-10-30T20:56:15.577Z,101867.94
2022-10-30T20:58:43.760Z,101876.53
2022-10-30T21:01:13.685Z,101878.22
2022-10-30T21:03:41.719Z,101877.31
2022-10-30T21:06:09.923Z,101872.94
2022-10-30T21:08:38.063Z,101867.75
2022-10-30T21:11:07.488Z,101871.19
2022-10-30T21:13:37.868Z,101873.72
2022-10-30T21:16:08.425Z,101871.88
2022-10-30T21:18:36.751Z,101868.38
2022-10-30T21:21:06.444Z,101877.88
2022-10-30T21:23:34.379Z,101876.13
2022-10-30T21:26:03.121Z,101883.81
2022-10-30T21:28:31.411Z,101880.13
2022-10-30T21:31:03.432Z,101872.22
2022-10-30T21:33:32.321Z,101875.66
2022-10-30T21:36:11.682Z,101878.88
2022-10-30T21:38:41.548Z,101869.38
2022-10-30T21:41:09.778Z,101862.38
2022-10-30T21:43:37.687Z,101859.69
2022-10-30T21:46:07.855Z,101867.28
2022-10-30T21:48:36.319Z,101860.34
2022-10-30T21:51:09.013Z,101866.25
2022-10-30T21:53:37.547Z,101856.69
2022-10-30T21:56:06.994Z,101860.78
2022-10-30T21:58:34.887Z,101858.06
2022-10-30T22:01:02.888Z,101858.72
2022-10-30T22:03:32.738Z,101857.59
2022-10-30T22:06:05.826Z,101856.56
2022-10-30T22:08:33.741Z,101858.06
2022-10-30T22:11:05.659Z,101861.34
2022-10-30T22:13:33.707Z,101863.81
2022-10-30T22:16:01.625Z,101855.84
2022-10-30T22:18:29.619Z,101849.63
2022-10-30T22:21:02.754Z,101857.22
2022-10-30T22:23:31.552Z,101846.75
2022-10-30T22:26:00.906Z,101845.69
2022-10-30T22:28:30.410Z,101844.69
2022-10-30T22:31:03.261Z,101845.31
2022-10-30T22:33:33.900Z,101845.19
2022-10-30T22:36:08.974Z,101838.06
2022-10-30T22:38:36.978Z,101836.19
2022-10-30T22:41:09.465Z,101834.31
2022-10-30T22:43:37.387Z,101841.03
2022-10-30T22:46:05.484Z,101839.94
2022-10-30T22:48:36.509Z,101832.72
2022-10-30T22:51:11.809Z,101823.03
2022-10-30T22:53:47.259Z,101825.31
2022-10-30T22:56:18.079Z,101819.06
2022-10-30T22:58:46.744Z,101816.31
2022-10-30T23:01:16.656Z,101818.75
2022-10-30T23:03:45.316Z,101817.66
2022-10-30T23:06:14.772Z,101815.78
2022-10-30T23:08:43.371Z,101814.66
2022-10-30T23:11:11.847Z,101815.34
2022-10-30T23:13:42.432Z,101810.91
2022-10-30T23:16:13.742Z,101806.50
2022-10-30T23:18:42.323Z,101810.78
2022-10-30T23:21:15.754Z,101812.56
2022-10-30T23:23:44.727Z,101806.56
2022-10-30T23:26:14.621Z,101801.38
2022-10-30T23:28:43.154Z,101809.16
2022-10-30T23:31:11.745Z,101797.91
2022-10-30T23:33:39.835Z,101804.88
2022-10-30T23:36:08.625Z,101789.41
2022-10-30T23:38:37.885Z,101793.81
2022-10-30T23:41:05.745Z,101786.00
2022-10-30T23:43:33.581Z,101786.19
2022-10-30T23:46:01.454Z,101791.47
2022-10-30T23:48:29.287Z,101790.63
2022-10-30T23:50:57.390Z,101787.25
2022-10-30T23:53:25.299Z,101788.38
2022-10-30T23:55:56.034Z,101774.53
2022-10-30T23:58:23.879Z,101777.13
